Time;durP1;ratioP1;P1;durP2;ratioP2;P2;SDS_P1;SDS_P2;PMS_P1;PMS_P2;Temp;Humidity;BMP_temperature;BMP_pressure;BME280_temperature;BME280_humidity;BME280_pressure;Samples;Min_cycle;Max_cycle;Signal;HPM_P1;HPM_P2
2022/08/13 00:01:47;;;;;;;1.90;1.20;;;20.40;99.90;;;;;;5234366;28;20088;-61
2022/08/13 00:04:21;;;;;;;1.42;1.30;;;20.40;99.90;;;;;;5205524;28;20035;-61
2022/08/13 00:07:08;;;;;;;1.27;1.17;;;20.30;99.90;;;;;;5200165;28;20036;-61
2022/08/13 00:09:42;;;;;;;1.33;0.98;;;20.20;99.90;;;;;;5218991;28;20024;-60
2022/08/13 00:15:29;;;;;;;1.30;1.20;;;20.10;99.90;;;;;;5219296;28;20025;-61
2022/08/13 00:18:08;;;;;;;1.10;0.93;;;20.10;99.90;;;;;;5218783;28;20035;-60
2022/08/13 00:20:46;;;;;;;1.00;1.00;;;20.10;99.90;;;;;;5200090;28;20025;-60
2022/08/13 00:23:19;;;;;;;1.00;1.00;;;20.10;99.90;;;;;;5205539;28;20047;-61
2022/08/13 00:26:01;;;;;;;1.00;0.98;;;20.10;99.90;;;;;;5223504;28;20023;-61
2022/08/13 00:28:35;;;;;;;1.80;1.38;;;20.00;99.90;;;;;;5219576;28;20269;-61
2022/08/13 00:31:06;;;;;;;1.20;1.08;;;20.00;99.90;;;;;;5232290;28;20020;-61
2022/08/13 00:33:43;;;;;;;1.40;1.20;;;20.00;99.90;;;;;;5229127;28;20021;-61
2022/08/13 00:36:21;;;;;;;1.13;1.00;;;20.00;99.90;;;;;;5184447;28;20031;-60
2022/08/13 00:38:58;;;;;;;1.80;1.40;;;19.90;99.90;;;;;;5239203;28;20022;-62
2022/08/13 00:41:41;;;;;;;1.30;1.00;;;19.90;99.90;;;;;;5238547;28;20198;-61
2022/08/13 00:44:16;;;;;;;1.50;1.20;;;19.90;99.90;;;;;;5221447;28;20029;-63
2022/08/13 00:48:41;;;;;;;1.42;1.10;;;19.80;99.90;;;;;;5217894;28;20029;-61
2022/08/13 00:49:47;;;;;;;3.65;1.20;;;19.80;99.90;;;;;;5218363;28;20031;-61
2022/08/13 00:52:19;;;;;;;1.27;1.17;;;19.80;99.90;;;;;;5198520;28;20291;-60
2022/08/13 00:54:51;;;;;;;1.38;1.27;;;19.80;99.90;;;;;;5197756;28;20056;-61
2022/08/13 00:57:22;;;;;;;1.30;1.20;;;19.70;99.90;;;;;;5217314;28;20180;-62
2022/08/13 00:59:53;;;;;;;1.55;1.20;;;19.80;99.90;;;;;;5199972;28;20342;-62
2022/08/13 01:02:28;;;;;;;1.38;1.27;;;19.70;99.90;;;;;;5199085;28;20033;-62
2022/08/13 01:05:00;;;;;;;;;;;19.70;99.90;;;;;;5212841;28;20037;-62
2022/08/13 01:07:32;;;;;;;2.78;1.50;;;19.70;99.90;;;;;;5237774;28;20249;-62
2022/08/13 01:10:06;;;;;;;0.93;0.93;;;19.80;99.90;;;;;;5217022;28;20293;-60
2022/08/13 01:12:39;;;;;;;1.40;1.27;;;19.80;99.90;;;;;;5221979;28;20024;-61
2022/08/13 01:15:13;;;;;;;1.33;1.23;;;19.70;99.90;;;;;;5199951;28;20241;-61
2022/08/13 01:17:46;;;;;;;1.73;1.55;;;19.70;99.90;;;;;;5217040;28;20202;-62
2022/08/13 01:20:21;;;;;;;1.40;1.30;;;19.70;99.90;;;;;;5219506;28;20043;-62
2022/08/13 01:22:58;;;;;;;1.17;1.08;;;19.70;99.90;;;;;;5212866;28;20321;-61
2022/08/13 01:25:32;;;;;;;2.40;1.80;;;19.70;99.90;;;;;;5199765;28;20037;-61
2022/08/13 01:28:04;;;;;;;1.65;1.40;;;19.60;99.90;;;;;;5218037;28;20409;-61
2022/08/13 01:30:44;;;;;;;1.40;1.30;;;19.60;99.90;;;;;;5217660;28;20024;-61
2022/08/13 01:33:18;;;;;;;1.60;1.48;;;19.50;99.90;;;;;;5222432;28;20050;-61
2022/08/13 01:35:52;;;;;;;2.65;1.58;;;19.50;99.90;;;;;;5199575;28;20120;-61
2022/08/13 01:38:26;;;;;;;1.85;1.25;;;19.50;99.90;;;;;;5218645;28;20029;-62
2022/08/13 01:40:57;;;;;;;1.45;1.35;;;19.50;99.90;;;;;;5199707;28;20021;-62
2022/08/13 01:43:30;;;;;;;1.35;1.25;;;19.40;99.90;;;;;;5217883;28;20029;-61
2022/08/13 01:46:06;;;;;;;1.60;1.20;;;19.40;99.90;;;;;;5216962;28;20213;-62
2022/08/13 01:51:36;;;;;;;1.95;1.73;;;19.30;99.90;;;;;;5219344;28;20013;-61
2022/08/13 01:54:09;;;;;;;2.33;1.35;;;19.30;99.90;;;;;;5209000;28;20031;-61
2022/08/13 01:56:40;;;;;;;1.38;1.27;;;19.30;99.90;;;;;;5198514;28;20298;-60
2022/08/13 01:59:11;;;;;;;1.92;1.45;;;19.30;99.90;;;;;;5216959;28;20021;-60
2022/08/13 02:01:45;;;;;;;1.85;1.42;;;19.30;99.90;;;;;;5199315;28;20029;-62
2022/08/13 02:04:17;;;;;;;1.67;1.58;;;19.20;99.90;;;;;;5189094;28;20198;-61
2022/08/13 02:06:48;;;;;;;1.40;1.30;;;19.10;99.90;;;;;;5200878;28;20025;-61
2022/08/13 02:09:23;;;;;;;1.58;1.48;;;19.10;99.90;;;;;;5217299;28;20027;-61
2022/08/13 02:11:54;;;;;;;2.33;1.75;;;19.10;99.90;;;;;;5198012;28;20334;-60
2022/08/13 02:14:28;;;;;;;1.42;1.20;;;19.10;99.90;;;;;;5178357;28;20055;-61
2022/08/13 02:17:24;;;;;;;10.43;1.57;;;19.00;99.90;;;;;;5204261;28;20035;-61
2022/08/13 02:19:59;;;;;;;2.20;1.63;;;19.00;99.90;;;;;;5220345;28;20038;-61
2022/08/13 02:22:34;;;;;;;1.70;1.60;;;18.90;99.90;;;;;;5194687;28;20040;-61
2022/08/13 02:25:06;;;;;;;1.70;1.45;;;18.80;99.90;;;;;;5198836;28;20056;-60
2022/08/13 02:27:38;;;;;;;4.20;1.70;;;18.80;99.90;;;;;;5196259;28;20294;-62
2022/08/13 02:30:17;;;;;;;1.77;1.60;;;18.80;99.90;;;;;;5208532;28;20044;-62
2022/08/13 02:32:50;;;;;;;1.50;1.30;;;18.80;99.90;;;;;;5194605;28;20296;-62
2022/08/13 02:35:21;;;;;;;1.42;1.30;;;18.80;99.90;;;;;;5215804;28;20025;-62
2022/08/13 02:37:55;;;;;;;1.75;1.50;;;18.80;99.90;;;;;;5198278;28;20036;-62
2022/08/13 02:43:17;;;;;;;1.67;1.40;;;18.80;99.90;;;;;;5226805;28;20356;-62
2022/08/13 02:45:49;;;;;;;2.22;1.70;;;18.70;99.90;;;;;;5215278;28;20023;-61
2022/08/13 02:48:24;;;;;;;2.13;1.55;;;18.70;99.90;;;;;;5219934;28;20017;-61
2022/08/13 02:51:01;;;;;;;1.58;1.48;;;18.70;99.90;;;;;;5218010;28;20023;-61
2022/08/13 02:53:38;;;;;;;2.88;1.52;;;18.60;99.90;;;;;;5181422;28;20025;-61
2022/08/13 02:56:14;;;;;;;1.75;1.45;;;18.60;99.90;;;;;;5197981;28;20043;-61
2022/08/13 02:58:45;;;;;;;2.92;1.95;;;18.60;99.90;;;;;;5215861;28;20202;-61
2022/08/13 03:01:25;;;;;;;2.00;1.83;;;18.60;99.90;;;;;;5216334;28;20320;-61
2022/08/13 03:03:57;;;;;;;2.45;1.98;;;18.50;99.90;;;;;;5215053;28;20021;-60
2022/08/13 03:06:29;;;;;;;2.58;1.70;;;18.50;99.90;;;;;;5204596;28;20045;-62
2022/08/13 03:09:02;;;;;;;2.10;1.90;;;18.50;99.90;;;;;;5198525;28;20023;-61
2022/08/13 03:11:33;;;;;;;2.22;2.00;;;18.40;99.90;;;;;;5182785;28;20047;-61
2022/08/13 03:14:12;;;;;;;2.17;1.98;;;18.40;99.90;;;;;;5199447;28;20047;-61
2022/08/13 03:16:46;;;;;;;2.53;1.63;;;18.40;99.90;;;;;;5202628;28;20021;-61
2022/08/13 03:19:17;;;;;;;4.63;2.33;;;18.40;99.90;;;;;;5214240;28;20229;-61
2022/08/13 03:21:51;;;;;;;1.77;1.52;;;18.40;99.90;;;;;;5215150;28;20047;-61
2022/08/13 03:24:22;;;;;;;2.20;2.00;;;18.40;99.90;;;;;;5181173;28;20044;-61
2022/08/13 03:26:56;;;;;;;2.88;1.83;;;18.40;99.90;;;;;;5214646;28;20334;-62
2022/08/13 03:29:28;;;;;;;1.80;1.70;;;18.30;99.90;;;;;;5213481;28;20031;-62
2022/08/13 03:32:03;;;;;;;2.25;1.70;;;18.40;99.90;;;;;;5213821;28;20029;-61
2022/08/13 03:34:36;;;;;;;2.17;1.55;;;18.40;99.90;;;;;;5197595;28;20295;-62
2022/08/13 03:37:10;;;;;;;1.45;1.35;;;18.40;99.90;;;;;;5196777;28;20443;-61
2022/08/13 03:39:42;;;;;;;2.00;1.77;;;18.40;99.90;;;;;;5196691;28;20037;-61
2022/08/13 03:42:15;;;;;;;2.20;1.90;;;18.40;99.90;;;;;;5206771;28;20221;-61
2022/08/13 03:44:49;;;;;;;1.90;1.67;;;18.40;99.90;;;;;;5201786;28;20025;-61
2022/08/13 03:47:21;;;;;;;3.83;2.58;;;18.30;99.90;;;;;;5206850;28;20120;-61
2022/08/13 03:49:57;;;;;;;2.58;1.73;;;18.40;99.90;;;;;;5201315;28;20035;-61
2022/08/13 03:52:34;;;;;;;1.73;1.50;;;18.40;99.90;;;;;;5201878;28;20031;-61
2022/08/13 03:55:13;;;;;;;1.67;1.50;;;18.40;99.90;;;;;;5219094;28;20348;-61
2022/08/13 03:57:45;;;;;;;2.65;1.83;;;18.40;99.90;;;;;;5220250;28;20032;-61
2022/08/13 04:00:28;;;;;;;2.00;1.80;;;18.50;99.90;;;;;;5219936;28;20326;-61
2022/08/13 04:03:13;;;;;;;1.63;1.48;;;18.50;99.90;;;;;;5219376;28;20013;-61
2022/08/13 04:05:46;;;;;;;2.17;1.98;;;18.60;99.90;;;;;;5193883;28;20045;-61
2022/08/13 04:08:17;;;;;;;2.33;1.77;;;18.60;99.90;;;;;;5218299;28;20016;-60
2022/08/13 04:10:49;;;;;;;1.63;1.52;;;18.60;99.90;;;;;;5222838;28;20013;-61
2022/08/13 04:13:24;;;;;;;1.73;1.60;;;18.60;99.90;;;;;;5221997;28;20215;-61
2022/08/13 04:15:56;;;;;;;3.40;1.83;;;18.60;99.90;;;;;;5225033;28;20040;-60
2022/08/13 04:18:27;;;;;;;1.85;1.60;;;18.60;99.90;;;;;;5219228;28;20031;-60
2022/08/13 04:20:59;;;;;;;1.65;1.50;;;18.70;99.90;;;;;;5201290;28;20033;-61
2022/08/13 04:23:33;;;;;;;1.63;1.52;;;18.70;99.90;;;;;;5212324;28;20034;-61
2022/08/13 04:26:05;;;;;;;2.55;1.80;;;18.70;99.90;;;;;;5181976;28;20219;-61
2022/08/13 04:28:39;;;;;;;2.03;1.88;;;18.70;99.90;;;;;;5181194;28;20033;-61
2022/08/13 04:31:11;;;;;;;1.88;1.50;;;18.80;99.90;;;;;;5219935;28;20019;-61
2022/08/13 04:33:45;;;;;;;2.33;1.80;;;18.90;99.90;;;;;;5221860;28;20183;-61
2022/08/13 04:36:17;;;;;;;1.75;1.50;;;18.90;99.90;;;;;;5223286;28;20515;-62
2022/08/13 04:38:51;;;;;;;2.08;1.60;;;19.00;99.90;;;;;;5200872;28;20021;-61
2022/08/13 04:41:24;;;;;;;1.73;1.60;;;19.00;99.90;;;;;;5233833;28;20033;-61
2022/08/13 04:43:55;;;;;;;1.80;1.70;;;19.00;99.90;;;;;;5227768;28;20134;-61
2022/08/13 04:46:26;;;;;;;2.75;2.15;;;19.00;99.90;;;;;;5218902;28;20024;-61
2022/08/13 04:49:01;;;;;;;2.55;1.45;;;19.00;99.90;;;;;;5200221;28;20029;-61
2022/08/13 04:51:37;;;;;;;;;;;19.00;99.90;;;;;;5218056;28;20021;-62
2022/08/13 04:54:08;;;;;;;2.22;1.52;;;19.10;99.90;;;;;;5218684;28;20150;-62
2022/08/13 04:56:41;;;;;;;2.60;2.10;;;19.00;99.90;;;;;;5200316;28;20024;-65
2022/08/13 04:59:15;;;;;;;1.90;1.70;;;19.10;99.90;;;;;;5200511;28;20032;-61
2022/08/13 05:01:54;;;;;;;1.85;1.63;;;19.20;99.90;;;;;;5200614;28;20195;-62
2022/08/13 05:04:29;;;;;;;2.10;2.00;;;19.20;99.90;;;;;;5208508;28;20043;-61
2022/08/13 05:07:01;;;;;;;2.38;1.80;;;19.30;99.90;;;;;;5217959;28;20021;-62
2022/08/13 05:09:32;;;;;;;1.67;1.42;;;19.30;99.90;;;;;;5202985;28;20009;-62
2022/08/13 05:12:07;;;;;;;1.80;1.70;;;19.40;99.90;;;;;;5211541;28;20028;-62
2022/08/13 05:14:40;;;;;;;1.90;1.70;;;19.40;99.90;;;;;;5204550;28;20039;-62
2022/08/13 05:17:14;;;;;;;2.28;1.88;;;19.50;99.90;;;;;;5219918;28;20198;-62
2022/08/13 05:19:46;;;;;;;2.42;1.95;;;19.60;99.90;;;;;;5218096;28;20021;-62
2022/08/13 05:22:23;;;;;;;3.97;2.17;;;19.70;99.90;;;;;;5200288;28;20047;-62
2022/08/13 05:24:54;;;;;;;5.75;2.22;;;19.80;99.90;;;;;;5217626;28;20035;-61
2022/08/13 05:27:31;;;;;;;2.60;2.00;;;19.80;99.90;;;;;;5196140;28;20176;-62
2022/08/13 05:30:04;;;;;;;1.85;1.75;;;19.90;99.90;;;;;;5195225;28;20040;-62
2022/08/13 05:32:38;;;;;;;4.70;2.00;;;19.90;99.90;;;;;;5198229;28;20295;-61
2022/08/13 05:35:15;;;;;;;2.30;1.65;;;19.90;99.90;;;;;;5188242;28;20039;-61
2022/08/13 05:37:46;;;;;;;2.65;2.00;;;19.80;99.90;;;;;;5224550;28;20286;-62
2022/08/13 05:40:27;;;;;;;2.15;1.60;;;19.90;99.90;;;;;;5203543;28;20024;-61
2022/08/13 05:43:00;;;;;;;2.17;1.85;;;19.90;99.90;;;;;;5219653;28;20025;-60
2022/08/13 05:45:32;;;;;;;2.17;1.98;;;19.70;99.90;;;;;;5200266;28;20043;-61
2022/08/13 05:48:06;;;;;;;4.13;2.38;;;19.70;99.90;;;;;;5218001;28;20021;-61
2022/08/13 05:50:37;;;;;;;;;;;19.60;99.90;;;;;;5200555;28;20124;-60
2022/08/13 05:53:15;;;;;;;2.08;1.85;;;19.70;99.90;;;;;;5185338;28;20301;-61
2022/08/13 05:55:53;;;;;;;2.33;1.83;;;19.80;99.90;;;;;;5199762;28;20222;-60
2022/08/13 05:58:26;;;;;;;1.73;1.63;;;19.90;99.90;;;;;;5217157;28;20021;-61
2022/08/13 06:03:52;;;;;;;2.20;1.90;;;19.60;99.90;;;;;;5217648;28;20025;-61
2022/08/13 06:06:24;;;;;;;2.17;1.98;;;19.60;99.90;;;;;;5205414;28;20049;-61
2022/08/13 06:08:56;;;;;;;3.00;2.30;;;19.60;99.90;;;;;;5216005;28;20020;-65
2022/08/13 06:11:30;;;;;;;3.80;2.65;;;19.60;99.90;;;;;;5224027;28;20020;-61
2022/08/13 06:14:01;;;;;;;2.28;2.08;;;19.70;99.90;;;;;;5183004;28;20041;-60
2022/08/13 06:16:34;;;;;;;2.90;2.40;;;19.70;99.90;;;;;;5199382;28;20025;-61
2022/08/13 06:19:05;;;;;;;6.63;2.05;;;19.70;99.90;;;;;;5217188;28;20027;-61
2022/08/13 06:21:40;;;;;;;2.50;1.80;;;19.70;99.90;;;;;;5198804;28;20297;-60
2022/08/13 06:24:12;;;;;;;;;;;19.80;99.90;;;;;;5219716;28;20421;-61
2022/08/13 06:26:43;;;;;;;2.10;1.90;;;19.70;99.90;;;;;;5203795;28;19913;-61
2022/08/13 06:29:23;;;;;;;2.30;2.10;;;19.80;99.90;;;;;;5216234;28;20321;-60
2022/08/13 06:32:03;;;;;;;2.55;2.35;;;19.90;99.90;;;;;;5199409;28;20033;-61
2022/08/13 06:34:41;;;;;;;1.90;1.80;;;20.10;99.90;;;;;;5201372;28;20051;-62
2022/08/13 06:37:12;;;;;;;4.95;2.38;;;20.40;99.90;;;;;;5231842;28;20025;-61
2022/08/13 06:39:44;;;;;;;2.65;2.00;;;20.50;99.90;;;;;;5202162;28;20406;-61
2022/08/13 06:42:22;;;;;;;2.72;1.77;;;20.60;99.90;;;;;;5219842;28;20021;-62
2022/08/13 06:44:54;;;;;;;2.22;1.83;;;20.50;99.90;;;;;;5198432;28;20021;-61
2022/08/13 06:47:29;;;;;;;2.00;1.70;;;20.40;99.90;;;;;;5216319;28;20298;-61
2022/08/13 06:50:02;;;;;;;2.45;2.25;;;20.50;99.90;;;;;;5197947;28;20195;-61
2022/08/13 06:52:35;;;;;;;3.63;2.13;;;20.60;99.90;;;;;;5197357;28;20031;-61
2022/08/13 06:55:07;;;;;;;2.85;2.00;;;20.60;99.90;;;;;;5216063;28;20226;-60
2022/08/13 06:57:39;;;;;;;3.25;2.15;;;20.30;99.90;;;;;;5218829;28;20017;-60
2022/08/13 07:00:11;;;;;;;3.92;2.40;;;20.40;99.90;;;;;;5216684;28;20031;-59
2022/08/13 07:02:44;;;;;;;3.97;2.42;;;20.50;99.90;;;;;;5198364;28;20198;-61
2022/08/13 07:05:30;;;;;;;3.78;2.10;;;20.50;99.90;;;;;;5183269;28;20316;-61
2022/08/13 07:08:04;;;;;;;3.20;2.00;;;20.50;99.90;;;;;;5199312;28;20063;-63
2022/08/13 07:10:43;;;;;;;3.17;2.30;;;20.50;99.90;;;;;;5221723;28;20017;-61
2022/08/13 07:13:14;;;;;;;2.97;2.45;;;20.50;99.90;;;;;;5217332;28;20040;-61
2022/08/13 07:15:52;;;;;;;4.30;2.47;;;20.40;99.90;;;;;;5205018;28;20025;-61
2022/08/13 07:18:23;;;;;;;3.00;2.53;;;20.60;99.90;;;;;;5220926;28;20425;-62
2022/08/13 07:20:54;;;;;;;2.30;2.10;;;20.80;99.90;;;;;;5219791;28;20123;-60
2022/08/13 07:23:28;;;;;;;2.58;2.38;;;20.60;99.90;;;;;;5201840;28;20096;-62
2022/08/13 07:26:06;;;;;;;3.92;2.38;;;20.80;99.90;;;;;;5196306;28;20033;-62
2022/08/13 07:28:37;;;;;;;3.00;1.95;;;20.90;99.90;;;;;;5202247;28;20375;-62
2022/08/13 07:31:13;;;;;;;2.70;1.92;;;21.00;99.90;;;;;;5218842;28;20527;-61
2022/08/13 07:33:51;;;;;;;3.55;2.67;;;21.30;99.90;;;;;;5215365;28;20021;-62
2022/08/13 07:36:27;;;;;;;3.42;2.65;;;21.30;99.90;;;;;;5219166;28;20021;-62
2022/08/13 07:39:10;;;;;;;2.65;2.40;;;21.20;99.90;;;;;;5185562;28;20314;-62
2022/08/13 07:41:45;;;;;;;2.85;2.42;;;21.30;99.90;;;;;;5219483;28;20047;-62
2022/08/13 07:44:22;;;;;;;2.90;2.30;;;21.60;99.90;;;;;;5216224;28;20338;-61
2022/08/13 07:46:53;;;;;;;2.75;2.35;;;21.40;99.90;;;;;;5219513;28;20249;-61
2022/08/13 07:49:33;;;;;;;3.25;2.38;;;21.40;99.90;;;;;;5218525;28;20020;-61
2022/08/13 07:52:09;;;;;;;3.10;2.55;;;21.60;99.90;;;;;;5204735;28;20028;-61
2022/08/13 07:54:45;;;;;;;8.55;2.60;;;21.70;99.90;;;;;;5191268;28;20063;-61
2022/08/13 07:57:18;;;;;;;2.63;2.25;;;21.50;99.90;;;;;;5202843;28;20375;-61
2022/08/13 07:59:57;;;;;;;3.47;2.50;;;21.60;99.90;;;;;;5212916;28;20043;-61
2022/08/13 08:02:32;;;;;;;3.42;2.70;;;21.90;99.90;;;;;;5183671;28;20033;-62
2022/08/13 08:05:06;;;;;;;4.13;2.42;;;21.80;99.90;;;;;;5206596;28;20051;-62
2022/08/13 08:07:40;;;;;;;2.67;2.35;;;22.00;99.90;;;;;;5221433;28;20039;-61
2022/08/13 08:10:12;;;;;;;4.25;2.58;;;22.00;99.90;;;;;;5219024;28;20029;-61
2022/08/13 08:12:49;;;;;;;4.22;2.78;;;22.30;99.90;;;;;;5199419;28;20218;-62
2022/08/13 08:15:23;;;;;;;2.72;2.30;;;22.20;99.90;;;;;;5200731;28;20307;-61
2022/08/13 08:18:02;;;;;;;4.13;2.67;;;22.50;99.90;;;;;;5219528;28;20027;-61
2022/08/13 08:20:42;;;;;;;2.75;2.42;;;22.70;99.90;;;;;;5183827;28;20025;-62
2022/08/13 08:23:26;;;;;;;3.75;2.85;;;22.70;99.90;;;;;;5201178;28;20024;-64
2022/08/13 08:26:06;;;;;;;3.78;3.30;;;22.90;99.90;;;;;;5207606;28;20208;-60
2022/08/13 08:28:41;;;;;;;2.67;2.40;;;22.90;99.90;;;;;;5217010;28;20297;-61
2022/08/13 08:31:19;;;;;;;3.65;2.50;;;22.80;99.90;;;;;;5218203;28;20310;-61
2022/08/13 08:33:53;;;;;;;4.60;2.30;;;22.80;99.90;;;;;;5199556;28;20021;-62
2022/08/13 08:36:28;;;;;;;5.43;3.42;;;22.70;99.90;;;;;;5200832;28;20024;-61
2022/08/13 08:44:42;;;;;;;2.85;2.47;;;23.60;99.90;;;;;;5190507;28;20041;-61
2022/08/13 08:47:14;;;;;;;2.78;2.50;;;24.10;99.90;;;;;;5182004;28;20037;-63
2022/08/13 08:49:48;;;;;;;3.42;2.55;;;24.30;99.90;;;;;;5183933;28;20032;-62
2022/08/13 08:52:19;;;;;;;4.18;3.05;;;24.10;99.90;;;;;;5190914;28;20222;-62
2022/08/13 08:54:54;;;;;;;4.82;3.10;;;24.30;99.90;;;;;;5198476;28;20336;-62
2022/08/13 08:57:25;;;;;;;3.17;2.55;;;24.30;99.90;;;;;;5217698;28;20021;-62
2022/08/13 08:59:56;;;;;;;3.30;3.00;;;24.30;99.90;;;;;;5213699;28;20029;-61
2022/08/13 09:02:28;;;;;;;4.15;3.22;;;24.20;99.90;;;;;;5197536;28;20043;-61
2022/08/13 09:05:03;;;;;;;3.78;2.90;;;24.20;99.90;;;;;;5188458;28;20049;-62
2022/08/13 09:07:36;;;;;;;4.60;3.15;;;24.40;99.90;;;;;;5203612;28;20243;-62
2022/08/13 09:10:10;;;;;;;3.13;2.23;;;24.40;99.90;;;;;;5208105;28;20025;-62
2022/08/13 09:12:50;;;;;;;3.08;2.40;;;24.80;99.90;;;;;;5186202;28;20032;-63
2022/08/13 09:15:24;;;;;;;3.20;2.80;;;25.50;99.90;;;;;;5207214;28;20020;-61
2022/08/13 09:17:59;;;;;;;3.47;3.00;;;25.30;99.90;;;;;;5220821;28;20029;-62
2022/08/13 09:20:33;;;;;;;3.90;2.65;;;25.10;99.90;;;;;;5203663;28;20039;-62
2022/08/13 09:23:07;;;;;;;3.30;2.65;;;25.30;99.90;;;;;;5217635;28;20020;-61
2022/08/13 09:25:44;;;;;;;3.75;2.83;;;25.70;99.90;;;;;;5214088;28;20021;-62
2022/08/13 09:28:23;;;;;;;3.95;2.90;;;25.90;99.90;;;;;;5217403;28;20031;-62
2022/08/13 09:30:59;;;;;;;4.10;3.25;;;25.40;99.90;;;;;;5197634;28;20352;-62
2022/08/13 09:33:30;;;;;;;3.83;2.80;;;25.70;99.90;;;;;;5182255;28;20229;-61
2022/08/13 09:36:01;;;;;;;3.05;2.50;;;25.50;99.90;;;;;;5197683;28;20036;-62
2022/08/13 09:38:42;;;;;;;3.13;2.67;;;25.70;99.90;;;;;;5219307;28;20016;-62
2022/08/13 09:41:34;;;;;;;3.88;2.90;;;25.90;99.90;;;;;;5220783;28;20017;-62
2022/08/13 09:44:06;;;;;;;4.45;3.13;;;26.10;99.90;;;;;;5227155;28;20020;-62
2022/08/13 09:46:42;;;;;;;7.75;3.65;;;25.60;99.90;;;;;;5203137;28;20310;-62
2022/08/13 09:49:16;;;;;;;3.03;2.70;;;26.10;99.90;;;;;;5195338;28;20314;-62
2022/08/13 09:51:47;;;;;;;4.70;3.47;;;26.00;99.90;;;;;;5216866;28;20017;-62
2022/08/13 09:54:22;;;;;;;3.65;2.90;;;26.10;99.90;;;;;;5217227;28;20024;-62
2022/08/13 09:56:58;;;;;;;3.38;2.90;;;25.90;99.90;;;;;;5216653;28;20453;-62
2022/08/13 09:59:32;;;;;;;3.45;2.95;;;26.30;99.90;;;;;;5197285;28;20021;-62
2022/08/13 10:02:08;;;;;;;7.03;4.25;;;26.20;99.90;;;;;;5201743;28;20122;-62
2022/08/13 10:04:42;;;;;;;3.97;3.17;;;26.20;99.90;;;;;;5206258;28;20059;-62
2022/08/13 10:07:13;;;;;;;3.35;3.05;;;26.50;99.90;;;;;;5206675;28;20028;-63
2022/08/13 10:09:44;;;;;;;3.55;2.78;;;26.40;99.90;;;;;;5216371;28;20021;-63
2022/08/13 10:12:18;;;;;;;4.10;2.95;;;26.40;99.90;;;;;;5217529;28;20253;-61
2022/08/13 10:14:49;;;;;;;4.10;3.33;;;26.60;99.90;;;;;;5202700;28;20060;-61
2022/08/13 10:17:20;;;;;;;4.53;3.28;;;26.20;99.90;;;;;;5204317;28;20029;-62
2022/08/13 10:19:54;;;;;;;8.07;3.60;;;26.10;99.90;;;;;;5220337;28;20021;-62
2022/08/13 10:22:25;;;;;;;5.13;2.90;;;26.90;99.90;;;;;;5213234;28;20017;-62
2022/08/13 10:24:59;;;;;;;4.63;2.63;;;26.90;99.90;;;;;;5216162;28;20025;-62
2022/08/13 10:27:35;;;;;;;3.10;2.80;;;27.00;99.90;;;;;;5206575;28;20016;-62
2022/08/13 10:30:06;;;;;;;5.15;3.13;;;27.20;99.90;;;;;;5198121;28;20043;-62
2022/08/13 10:32:41;;;;;;;3.85;3.13;;;27.40;99.90;;;;;;5216133;28;20278;-60
2022/08/13 10:35:25;;;;;;;4.13;3.10;;;27.90;99.90;;;;;;5217203;28;20206;-61
2022/08/13 10:38:00;;;;;;;3.73;3.13;;;27.30;99.90;;;;;;5218791;28;20025;-61
2022/08/13 10:40:39;;;;;;;5.82;3.22;;;27.10;99.90;;;;;;5202555;28;20016;-61
2022/08/13 10:43:16;;;;;;;3.97;2.72;;;27.50;99.90;;;;;;5210717;28;20128;-62
2022/08/13 10:45:52;;;;;;;4.07;3.53;;;27.50;99.90;;;;;;5215714;28;20376;-61
2022/08/13 10:48:25;;;;;;;5.05;3.42;;;27.30;99.90;;;;;;5216528;28;20019;-61
2022/08/13 10:50:59;;;;;;;3.50;2.60;;;27.20;99.90;;;;;;5197388;28;20033;-62
2022/08/13 10:56:20;;;;;;;4.03;2.97;;;27.70;99.90;;;;;;5202673;28;20477;-61
2022/08/13 10:58:55;;;;;;;4.07;2.85;;;27.90;99.90;;;;;;5197946;28;20478;-62
2022/08/13 11:01:34;;;;;;;4.57;2.92;;;27.80;99.90;;;;;;5219998;28;20013;-62
2022/08/13 11:04:08;;;;;;;5.80;2.92;;;27.80;99.90;;;;;;5204496;28;20229;-61
2022/08/13 11:06:40;;;;;;;5.05;2.92;;;27.80;99.90;;;;;;5182522;28;20643;-61
2022/08/13 11:09:11;;;;;;;3.88;3.25;;;27.30;99.90;;;;;;5216323;28;20263;-61
2022/08/13 11:11:46;;;;;;;3.53;3.05;;;26.90;99.90;;;;;;5209449;28;20504;-61
2022/08/13 11:14:24;;;;;;;3.13;2.75;;;27.50;99.90;;;;;;5215715;28;20035;-61
2022/08/13 11:16:58;;;;;;;4.93;3.15;;;28.20;99.90;;;;;;5211082;28;20025;-62
2022/08/13 11:19:33;;;;;;;4.68;3.30;;;28.80;99.90;;;;;;5207582;28;20020;-62
2022/08/13 11:22:07;;;;;;;3.30;2.70;;;29.00;99.90;;;;;;5209058;28;20211;-61
2022/08/13 11:24:43;;;;;;;8.40;3.40;;;28.90;99.90;;;;;;5193253;28;20029;-61
2022/08/13 11:27:18;;;;;;;3.00;2.63;;;28.40;99.90;;;;;;5180542;28;20021;-62
2022/08/13 11:29:54;;;;;;;4.00;2.88;;;29.40;99.90;;;;;;5215323;28;20044;-62
2022/08/13 11:32:33;;;;;;;3.00;2.60;;;30.40;99.90;;;;;;5192293;28;20043;-63
2022/08/13 11:35:07;;;;;;;3.70;2.90;;;32.00;99.90;;;;;;5195317;28;20417;-63
2022/08/13 11:37:39;;;;;;;3.08;2.70;;;32.50;99.90;;;;;;5212010;28;20435;-64
2022/08/13 11:40:13;;;;;;;3.55;2.40;;;30.90;99.90;;;;;;5214963;28;20206;-61
2022/08/13 11:42:45;;;;;;;4.32;3.28;;;29.60;99.90;;;;;;5236298;28;20017;-61
2022/08/13 11:45:18;;;;;;;3.25;2.63;;;28.70;99.90;;;;;;5239386;28;20029;-62
2022/08/13 11:47:52;;;;;;;3.63;2.93;;;28.60;99.90;;;;;;5218755;28;20032;-61
2022/08/13 11:50:26;;;;;;;3.47;2.92;;;29.00;99.90;;;;;;5220003;28;20268;-61
2022/08/13 11:52:57;;;;;;;3.35;2.78;;;29.10;99.90;;;;;;5237239;28;20033;-62
2022/08/13 11:55:30;;;;;;;3.25;2.95;;;28.80;99.90;;;;;;5236245;28;20025;-61
2022/08/13 11:58:07;;;;;;;3.70;2.50;;;29.20;99.90;;;;;;5239446;28;20031;-62
2022/08/13 12:00:42;;;;;;;2.58;2.35;;;27.80;99.90;;;;;;5228418;28;20584;-61
2022/08/13 12:03:16;;;;;;;3.50;2.55;;;27.30;99.90;;;;;;5218096;28;20015;-62
2022/08/13 12:05:47;;;;;;;2.67;2.30;;;28.40;99.90;;;;;;5186361;28;21438;-62
2022/08/13 12:08:19;;;;;;;2.60;2.40;;;30.10;99.90;;;;;;5193095;28;20324;-62
2022/08/13 12:10:51;;;;;;;2.60;2.40;;;30.30;99.90;;;;;;5217894;28;20017;-64
2022/08/13 12:13:22;;;;;;;2.65;2.45;;;30.80;99.90;;;;;;5203003;28;20058;-61
2022/08/13 12:15:53;;;;;;;2.72;2.53;;;31.10;99.90;;;;;;5218003;28;20233;-62
2022/08/13 12:18:25;;;;;;;2.95;2.35;;;30.90;99.90;;;;;;5218088;28;20033;-62
2022/08/13 12:21:01;;;;;;;3.42;2.47;;;30.10;99.90;;;;;;5214219;28;20095;-62
2022/08/13 12:23:33;;;;;;;3.03;2.55;;;29.20;99.90;;;;;;5196091;28;20601;-62
2022/08/13 12:26:04;;;;;;;2.78;2.10;;;29.60;99.90;;;;;;5196632;28;20229;-62
2022/08/13 12:28:37;;;;;;;3.38;2.70;;;30.10;99.90;;;;;;5210484;28;20279;-62
2022/08/13 12:31:14;;;;;;;2.67;2.40;;;29.50;99.90;;;;;;5214090;28;20127;-62
2022/08/13 12:33:50;;;;;;;3.10;2.80;;;29.70;99.90;;;;;;5215289;28;20250;-62
2022/08/13 12:36:21;;;;;;;3.08;2.30;;;30.50;99.90;;;;;;5197559;28;20043;-62
2022/08/13 12:38:52;;;;;;;3.58;2.95;;;30.20;99.90;;;;;;5214380;28;20021;-62
2022/08/13 12:41:30;;;;;;;3.10;2.58;;;29.90;99.90;;;;;;5199769;28;20047;-62
2022/08/13 12:44:03;;;;;;;5.75;3.15;;;29.60;99.90;;;;;;5215604;28;20013;-62
2022/08/13 12:46:35;;;;;;;4.10;2.95;;;28.60;99.90;;;;;;5217180;28;20265;-61
2022/08/13 12:49:07;;;;;;;3.42;2.30;;;28.30;99.90;;;;;;5197188;28;20354;-62
2022/08/13 12:51:38;;;;;;;3.90;3.10;;;29.70;99.90;;;;;;5214886;28;20032;-62
2022/08/13 12:54:17;;;;;;;2.58;2.15;;;30.50;99.90;;;;;;5214722;28;20045;-62
2022/08/13 12:56:49;;;;;;;5.82;3.10;;;31.70;99.90;;;;;;5197526;28;20525;-62
2022/08/13 12:59:20;;;;;;;3.30;2.70;;;31.00;99.90;;;;;;5216577;28;20477;-61
2022/08/13 13:01:55;;;;;;;4.72;2.67;;;31.10;99.90;;;;;;5214296;28;20134;-63
2022/08/13 13:04:28;;;;;;;3.35;2.95;;;31.40;99.90;;;;;;5183819;28;20041;-62
2022/08/13 13:07:00;;;;;;;3.33;3.03;;;30.90;99.90;;;;;;5215090;28;20226;-61
2022/08/13 13:09:34;;;;;;;3.47;2.92;;;29.90;99.90;;;;;;5198682;28;20315;-62
2022/08/13 13:12:05;;;;;;;3.42;2.78;;;29.20;99.90;;;;;;5216495;28;20211;-64
2022/08/13 13:14:36;;;;;;;3.17;2.55;;;29.00;99.90;;;;;;5213531;28;20028;-62
2022/08/13 13:17:08;;;;;;;2.92;2.15;;;30.00;99.90;;;;;;5216142;28;20194;-61
2022/08/13 13:19:39;;;;;;;3.28;2.58;;;31.40;99.90;;;;;;5194978;28;20020;-61
2022/08/13 13:22:10;;;;;;;2.83;2.50;;;31.10;99.90;;;;;;5212767;28;20021;-63
2022/08/13 13:24:41;;;;;;;3.53;2.70;;;31.10;99.90;;;;;;5213188;28;20245;-62
2022/08/13 13:27:15;;;;;;;2.88;2.45;;;32.20;99.90;;;;;;5211822;28;20044;-63
2022/08/13 13:29:50;;;;;;;2.90;2.60;;;33.40;99.90;;;;;;5214325;28;20027;-61
2022/08/13 13:32:22;;;;;;;3.05;2.60;;;31.70;99.90;;;;;;5213478;28;20716;-62
2022/08/13 13:34:55;;;;;;;3.55;2.88;;;31.80;99.90;;;;;;5214002;28;20207;-62
2022/08/13 13:37:28;;;;;;;3.75;2.85;;;30.50;99.90;;;;;;5214048;28;20129;-62
2022/08/13 13:39:59;;;;;;;5.40;3.25;;;29.90;99.90;;;;;;5196288;28;20021;-62
2022/08/13 13:42:30;;;;;;;5.35;3.15;;;30.10;99.90;;;;;;5196726;28;20342;-62
2022/08/13 13:45:05;;;;;;;3.85;3.00;;;31.10;99.90;;;;;;5213100;28;20033;-62